Time;durP1;ratioP1;P1;durP2;ratioP2;P2;SDS_P1;SDS_P2;PMS_P1;PMS_P2;Temp;Humidity;BMP_temperature;BMP_pressure;BME280_temperature;BME280_humidity;BME280_pressure;Samples;Min_cycle;Max_cycle;Signal;HPM_P1;HPM_P2
2023/12/08 00:02:12;;;;;;;;;;;;;;;19.12;46.53;97101.27;617606;229;64939;-67
2023/12/08 00:04:39;;;;;;;;;;;;;;;19.13;46.54;97097.56;617703;229;64923;-67
2023/12/08 00:07:07;;;;;;;;;;;;;;;19.11;46.57;97097.80;617673;229;62410;-67
2023/12/08 00:09:34;;;;;;;;;;;;;;;19.13;46.53;97105.55;617645;229;66871;-67
2023/12/08 00:12:02;;;;;;;;;;;;;;;19.14;46.56;97104.48;617635;229;66887;-67
2023/12/08 00:14:29;;;;;;;;;;;;;;;19.14;46.51;97096.48;617593;229;64753;-67
2023/12/08 00:16:57;;;;;;;;;;;;;;;19.14;46.50;97101.82;617672;229;67592;-67
2023/12/08 00:19:25;;;;;;;;;;;;;;;19.15;46.55;97108.74;617640;229;66896;-67
2023/12/08 00:21:52;;;;;;;;;;;;;;;19.13;46.52;97114.34;617655;229;62590;-67
2023/12/08 00:24:20;;;;;;;;;;;;;;;19.14;46.58;97112.48;617614;229;67208;-67
2023/12/08 00:26:48;;;;;;;;;;;;;;;19.11;46.55;97113.78;617639;229;64758;-67
2023/12/08 00:29:18;;;;;;;;;;;;;;;19.12;46.59;97110.05;617688;229;62413;-67
2023/12/08 00:31:45;;;;;;;;;;;;;;;19.13;46.58;97117.01;617646;229;64795;-68
2023/12/08 00:34:12;;;;;;;;;;;;;;;19.13;46.57;97117.01;617620;229;67034;-68
2023/12/08 00:36:41;;;;;;;;;;;;;;;19.13;46.60;97109.02;617502;229;62532;-68
2023/12/08 00:39:09;;;;;;;;;;;;;;;19.12;46.51;97112.72;617400;230;65031;-68
2023/12/08 00:41:36;;;;;;;;;;;;;;;19.12;46.59;97114.58;617435;230;64626;-68
2023/12/08 00:44:04;;;;;;;;;;;;;;;19.12;46.55;97112.72;617462;230;64744;-68
2023/12/08 00:46:31;;;;;;;;;;;;;;;19.13;46.53;97117.01;617420;230;66982;-68
2023/12/08 00:48:59;;;;;;;;;;;;;;;19.13;46.59;97110.88;617423;230;64926;-68
2023/12/08 00:51:27;;;;;;;;;;;;;;;19.13;46.60;97117.01;617436;230;62448;-68
2023/12/08 00:53:54;;;;;;;;;;;;;;;19.12;46.58;97114.58;617441;230;67068;-68
2023/12/08 00:56:22;;;;;;;;;;;;;;;19.13;46.52;97108.22;617467;230;66618;-68
2023/12/08 00:58:49;;;;;;;;;;;;;;;19.14;46.63;97107.14;617454;230;63515;-68
2023/12/08 01:01:19;;;;;;;;;;;;;;;19.14;46.50;97107.95;617421;230;67022;-68
2023/12/08 01:03:46;;;;;;;;;;;;;;;19.13;46.55;97116.20;617409;230;64836;-68
2023/12/08 01:06:14;;;;;;;;;;;;;;;19.12;46.54;97115.38;617421;230;62697;-68
2023/12/08 01:08:41;;;;;;;;;;;;;;;19.12;46.60;97112.72;617459;230;67350;-68
2023/12/08 01:11:09;;;;;;;;;;;;;;;19.13;46.58;97110.88;617452;230;67272;-68
2023/12/08 01:13:37;;;;;;;;;;;;;;;19.12;46.60;97109.26;617426;230;62772;-68
2023/12/08 01:16:06;;;;;;;;;;;;;;;19.12;46.59;97109.26;617457;230;64541;-68
2023/12/08 01:18:34;;;;;;;;;;;;;;;19.13;46.61;97111.67;617432;230;65009;-68
2023/12/08 01:21:02;;;;;;;;;;;;;;;19.10;46.62;97098.88;617484;230;62597;-68
2023/12/08 01:23:29;;;;;;;;;;;;;;;19.10;46.59;97101.54;617409;230;66722;-68
2023/12/08 01:25:57;;;;;;;;;;;;;;;19.13;46.57;97106.35;617429;230;66843;-67
2023/12/08 01:28:24;;;;;;;;;;;;;;;19.11;46.55;97105.80;617395;230;63485;-68
2023/12/08 01:30:52;;;;;;;;;;;;;;;19.10;46.58;97106.87;617423;230;67991;-68
2023/12/08 01:33:19;;;;;;;;;;;;;;;19.12;46.55;97112.72;617466;230;64829;-68
2023/12/08 01:35:47;;;;;;;;;;;;;;;19.13;46.60;97110.88;617391;229;65610;-68
2023/12/08 01:38:15;;;;;;;;;;;;;;;19.10;46.59;97109.53;617623;229;67059;-68
2023/12/08 01:40:43;;;;;;;;;;;;;;;19.11;46.67;97107.66;617622;229;64819;-68
2023/12/08 01:43:11;;;;;;;;;;;;;;;19.13;46.58;97111.67;617596;229;65718;-68
2023/12/08 01:45:39;;;;;;;;;;;;;;;19.11;46.58;97107.66;617636;229;65024;-68
2023/12/08 01:48:09;;;;;;;;;;;;;;;19.13;46.58;97117.01;617654;229;65702;-68
2023/12/08 01:50:37;;;;;;;;;;;;;;;19.10;46.66;97114.86;617630;229;63592;-68
2023/12/08 01:53:06;;;;;;;;;;;;;;;19.12;46.61;97115.38;617527;229;67384;-72
2023/12/08 01:55:34;;;;;;;;;;;;;;;19.13;46.60;97114.34;617628;229;64898;-72
2023/12/08 01:58:02;;;;;;;;;;;;;;;19.12;46.58;97106.59;617661;229;64686;-72
2023/12/08 02:00:30;;;;;;;;;;;;;;;19.13;46.66;97110.88;617651;229;64685;-72
2023/12/08 02:02:59;;;;;;;;;;;;;;;19.11;46.64;97108.46;617589;229;67265;-71
2023/12/08 02:05:26;;;;;;;;;;;;;;;19.11;46.64;97102.34;617609;229;62371;-71
2023/12/08 02:07:54;;;;;;;;;;;;;;;19.11;46.63;97110.33;617636;229;65045;-71
2023/12/08 02:10:22;;;;;;;;;;;;;;;19.10;46.62;97098.88;617689;229;66790;-71
2023/12/08 02:12:50;;;;;;;;;;;;;;;19.12;46.69;97101.27;617700;229;62360;-71
2023/12/08 02:15:17;;;;;;;;;;;;;;;19.13;46.63;97100.22;617624;229;67308;-71
2023/12/08 02:17:45;;;;;;;;;;;;;;;19.10;46.66;97098.88;617643;229;65130;-71
2023/12/08 02:20:13;;;;;;;;;;;;;;;19.12;46.65;97104.73;617652;229;64575;-71
2023/12/08 02:22:41;;;;;;;;;;;;;;;19.12;46.60;97102.06;617660;229;65024;-71
2023/12/08 02:25:09;;;;;;;;;;;;;;;19.12;46.61;97102.06;617683;229;64796;-71
2023/12/08 02:27:36;;;;;;;;;;;;;;;19.13;46.66;97108.22;617653;229;62330;-71
2023/12/08 02:30:04;;;;;;;;;;;;;;;19.13;46.70;97102.89;617612;227;67310;-71
2023/12/08 02:32:42;;;;;;;;;;;;;;;19.12;46.63;97107.39;617647;229;64837;-71
2023/12/08 02:35:10;;;;;;;;;;;;;;;19.12;46.64;97106.59;617697;229;64714;-71
2023/12/08 02:37:39;;;;;;;;;;;;;;;19.12;46.57;97110.05;617700;229;66635;-71
2023/12/08 02:40:08;;;;;;;;;;;;;;;19.12;46.67;97115.38;617710;229;65495;-67
2023/12/08 02:42:35;;;;;;;;;;;;;;;19.11;46.62;97108.46;617622;229;62662;-67
2023/12/08 02:45:03;;;;;;;;;;;;;;;19.09;46.70;97102.58;617672;229;67354;-67
2023/12/08 02:47:31;;;;;;;;;;;;;;;19.10;46.69;97114.86;617686;229;66743;-67
2023/12/08 02:49:59;;;;;;;;;;;;;;;19.12;46.63;97112.72;617679;229;64792;-67
2023/12/08 02:52:26;;;;;;;;;;;;;;;19.11;46.67;97110.33;617714;229;66858;-67
2023/12/08 02:54:54;;;;;;;;;;;;;;;19.10;46.69;97103.38;617672;229;66754;-67
2023/12/08 02:57:21;;;;;;;;;;;;;;;19.09;46.66;97105.24;617633;229;62271;-67
2023/12/08 02:59:49;;;;;;;;;;;;;;;19.11;46.62;97107.66;617675;229;67383;-67
2023/12/08 03:02:17;;;;;;;;;;;;;;;19.11;46.60;97108.46;617666;229;64747;-67
2023/12/08 03:04:44;;;;;;;;;;;;;;;19.10;46.61;97101.54;617696;229;64882;-67
2023/12/08 03:07:12;;;;;;;;;;;;;;;19.10;46.64;97101.54;617616;229;67182;-67
2023/12/08 03:09:39;;;;;;;;;;;;;;;19.11;46.64;97097.00;617631;229;64772;-67
2023/12/08 03:12:07;;;;;;;;;;;;;;;19.11;46.68;97103.13;617637;229;62475;-67
2023/12/08 03:14:34;;;;;;;;;;;;;;;19.11;46.58;97102.34;617647;229;67386;-67
2023/12/08 03:17:02;;;;;;;;;;;;;;;19.12;46.67;97102.06;617704;229;64816;-71
2023/12/08 03:19:29;;;;;;;;;;;;;;;19.10;46.69;97106.87;617636;229;64841;-71
2023/12/08 03:21:58;;;;;;;;;;;;;;;19.11;46.67;97100.47;617611;229;67237;-71
2023/12/08 03:24:25;;;;;;;;;;;;;;;19.10;46.61;97101.54;617680;229;66751;-71
2023/12/08 03:26:53;;;;;;;;;;;;;;;19.10;46.67;97106.87;617627;229;64646;-71
2023/12/08 03:29:20;;;;;;;;;;;;;;;19.10;46.66;97106.87;617699;229;67137;-71
2023/12/08 03:31:48;;;;;;;;;;;;;;;19.12;46.67;97112.72;617612;227;67253;-71
2023/12/08 03:34:15;;;;;;;;;;;;;;;19.11;46.66;97105.00;617625;229;62342;-71
2023/12/08 03:36:43;;;;;;;;;;;;;;;19.10;46.68;97106.03;617504;229;64471;-71
2023/12/08 03:39:10;;;;;;;;;;;;;;;19.10;46.67;97106.03;617456;228;64771;-71
2023/12/08 03:41:38;;;;;;;;;;;;;;;19.10;46.68;97109.53;617489;230;64779;-71
2023/12/08 03:44:05;;;;;;;;;;;;;;;19.10;46.65;97103.38;617493;230;64653;-71
2023/12/08 03:46:33;;;;;;;;;;;;;;;19.13;46.60;97110.88;617443;230;64729;-71
2023/12/08 03:49:00;;;;;;;;;;;;;;;19.11;46.70;97108.46;617446;230;64857;-71
2023/12/08 03:51:31;;;;;;;;;;;;;;;19.12;46.69;97103.93;617444;230;67613;-71
2023/12/08 03:53:57;;;;;;;;;;;;;;;19.08;46.69;97101.78;617360;230;66982;-71
2023/12/08 03:56:25;;;;;;;;;;;;;;;19.10;46.67;97106.03;617449;230;64678;-71
2023/12/08 03:58:53;;;;;;;;;;;;;;;19.12;46.64;97109.26;617439;230;65889;-71
2023/12/08 04:01:20;;;;;;;;;;;;;;;19.08;46.69;97104.45;617409;230;65698;-71
2023/12/08 04:03:48;;;;;;;;;;;;;;;19.09;46.63;97102.58;617418;230;64944;-72
2023/12/08 04:06:16;;;;;;;;;;;;;;;19.10;46.67;97106.87;617415;230;67216;-71
2023/12/08 04:08:43;;;;;;;;;;;;;;;19.11;46.68;97112.99;617468;230;64799;-68
2023/12/08 04:11:11;;;;;;;;;;;;;;;19.10;46.66;97101.54;617464;230;64602;-68
2023/12/08 04:13:40;;;;;;;;;;;;;;;19.10;46.70;97106.03;617468;230;65747;-68
2023/12/08 04:16:08;;;;;;;;;;;;;;;19.08;46.65;97108.98;617401;230;66713;-68
2023/12/08 04:18:35;;;;;;;;;;;;;;;19.10;46.68;97100.71;617463;230;64913;-68
2023/12/08 04:21:03;;;;;;;;;;;;;;;19.10;46.63;97103.38;617457;230;67174;-68
2023/12/08 04:23:30;;;;;;;;;;;;;;;19.07;46.67;97102.85;617432;230;67052;-72
2023/12/08 04:25:58;;;;;;;;;;;;;;;19.10;46.65;97103.38;617433;230;62332;-72
2023/12/08 04:28:26;;;;;;;;;;;;;;;19.10;46.62;97103.38;617440;230;67314;-72
2023/12/08 04:30:53;;;;;;;;;;;;;;;19.10;46.67;97100.71;617405;230;67060;-71
2023/12/08 04:33:21;;;;;;;;;;;;;;;19.10;46.71;97106.03;617497;230;63333;-71
2023/12/08 04:35:48;;;;;;;;;;;;;;;19.09;46.65;97105.24;617158;229;66976;-71
2023/12/08 04:38:16;;;;;;;;;;;;;;;19.10;46.62;97106.03;617267;230;66790;-71
2023/12/08 04:40:43;;;;;;;;;;;;;;;19.08;46.60;97104.45;617231;230;66009;-71
2023/12/08 04:43:11;;;;;;;;;;;;;;;19.09;46.63;97107.91;617204;230;64926;-72
2023/12/08 04:45:39;;;;;;;;;;;;;;;19.08;46.63;97109.77;617232;230;67344;-72
2023/12/08 04:48:06;;;;;;;;;;;;;;;19.09;46.70;97105.24;617210;230;63571;-72
2023/12/08 04:50:34;;;;;;;;;;;;;;;19.09;46.71;97105.24;617232;230;64669;-72
2023/12/08 04:53:01;;;;;;;;;;;;;;;19.11;46.56;97107.66;617253;230;67182;-72
2023/12/08 04:55:29;;;;;;;;;;;;;;;19.09;46.66;97105.24;617186;230;66123;-71
2023/12/08 04:57:56;;;;;;;;;;;;;;;19.07;46.67;97100.19;617066;230;64826;-71
2023/12/08 05:00:24;;;;;;;;;;;;;;;19.09;46.72;97102.58;617479;230;64873;-72
2023/12/08 05:02:51;;;;;;;;;;;;;;;19.07;46.71;97102.05;617461;230;64762;-72
2023/12/08 05:05:19;;;;;;;;;;;;;;;19.08;46.60;97095.66;617448;230;64430;-71
2023/12/08 05:07:47;;;;;;;;;;;;;;;19.08;46.76;97095.66;617410;230;67316;-71
2023/12/08 05:10:14;;;;;;;;;;;;;;;19.10;46.68;97106.03;617383;230;62349;-72
2023/12/08 05:12:42;;;;;;;;;;;;;;;19.07;46.70;97094.86;617490;230;64686;-72
2023/12/08 05:15:10;;;;;;;;;;;;;;;19.08;46.70;97100.98;617415;230;67206;-71
2023/12/08 05:17:37;;;;;;;;;;;;;;;19.07;46.73;97102.05;617428;230;62651;-68
2023/12/08 05:20:07;;;;;;;;;;;;;;;19.07;46.72;97104.72;617423;228;65095;-68
2023/12/08 05:22:35;;;;;;;;;;;;;;;19.05;46.68;97099.63;617430;230;67592;-68
2023/12/08 05:25:03;;;;;;;;;;;;;;;19.09;46.60;97105.24;617439;230;62435;-68
2023/12/08 05:27:30;;;;;;;;;;;;;;;19.08;46.55;97107.11;617442;230;68186;-68
2023/12/08 05:29:58;;;;;;;;;;;;;;;19.07;46.62;97102.05;617443;230;67132;-68
2023/12/08 05:32:25;;;;;;;;;;;;;;;19.07;46.64;97107.38;617392;230;64841;-68
2023/12/08 05:34:53;;;;;;;;;;;;;;;19.08;46.64;97106.31;617400;230;67129;-68
2023/12/08 05:37:20;;;;;;;;;;;;;;;19.06;46.68;97105.75;617447;229;66924;-68
2023/12/08 05:39:48;;;;;;;;;;;;;;;19.07;46.81;97113.50;617408;227;62375;-68
2023/12/08 05:42:16;;;;;;;;;;;;;;;19.08;46.71;97117.77;617405;229;67297;-68
2023/12/08 05:44:43;;;;;;;;;;;;;;;19.09;46.75;97121.22;617455;229;67249;-68
2023/12/08 05:47:11;;;;;;;;;;;;;;;19.08;46.70;97124.95;617455;229;62383;-68
2023/12/08 05:49:38;;;;;;;;;;;;;;;19.09;46.71;97126.55;617361;229;67294;-68
2023/12/08 05:52:06;;;;;;;;;;;;;;;19.08;46.70;97125.75;617475;229;66751;-68
2023/12/08 05:54:33;;;;;;;;;;;;;;;19.08;46.64;97135.61;617437;229;64986;-68
2023/12/08 05:57:01;;;;;;;;;;;;;;;19.07;46.69;97129.48;617412;229;67141;-68
2023/12/08 05:59:29;;;;;;;;;;;;;;;19.07;46.69;97134.81;617408;229;67550;-68
2023/12/08 06:01:56;;;;;;;;;;;;;;;19.06;46.75;97130.52;617385;229;65746;-68
2023/12/08 06:04:24;;;;;;;;;;;;;;;19.07;46.68;97134.02;617477;229;68006;-68
2023/12/08 06:06:51;;;;;;;;;;;;;;;19.06;46.75;97138.52;617453;229;66966;-68
2023/12/08 06:09:19;;;;;;;;;;;;;;;19.07;46.73;97139.34;617435;229;64910;-68
2023/12/08 06:11:46;;;;;;;;;;;;;;;19.07;46.79;97140.14;617463;229;67281;-68
2023/12/08 06:14:14;;;;;;;;;;;;;;;19.06;46.79;97146.51;617404;229;64581;-68
2023/12/08 06:16:42;;;;;;;;;;;;;;;19.07;46.70;97148.13;617492;229;64916;-68
2023/12/08 06:19:09;;;;;;;;;;;;;;;19.05;46.72;97144.12;617433;229;66853;-68
2023/12/08 06:21:37;;;;;;;;;;;;;;;19.07;46.67;97153.46;617439;229;67683;-68
2023/12/08 06:24:04;;;;;;;;;;;;;;;19.04;46.67;97151.31;617426;229;64621;-68
2023/12/08 06:26:32;;;;;;;;;;;;;;;19.07;46.66;97155.33;617404;229;67450;-68
2023/12/08 06:28:59;;;;;;;;;;;;;;;19.06;46.65;97159.83;617448;229;66872;-68
2023/12/08 06:31:27;;;;;;;;;;;;;;;19.08;46.67;97159.59;617436;229;64944;-68
2023/12/08 06:33:54;;;;;;;;;;;;;;;19.07;46.74;97157.98;617422;229;64886;-68
2023/12/08 06:36:22;;;;;;;;;;;;;;;19.07;46.70;97157.98;617362;229;67228;-68
2023/12/08 06:38:49;;;;;;;;;;;;;;;19.07;46.78;97163.31;617211;230;64910;-68
2023/12/08 06:41:17;;;;;;;;;;;;;;;19.06;46.73;97164.36;617327;230;66930;-68
2023/12/08 06:43:45;;;;;;;;;;;;;;;19.07;46.69;97161.45;617308;230;66827;-68
2023/12/08 06:46:12;;;;;;;;;;;;;;;19.07;46.73;97163.31;617216;230;66103;-68
2023/12/08 06:48:40;;;;;;;;;;;;;;;19.08;46.66;97164.91;617263;230;66720;-68
2023/12/08 06:51:07;;;;;;;;;;;;;;;19.06;46.66;97161.70;617203;230;66839;-67
2023/12/08 06:53:35;;;;;;;;;;;;;;;19.06;46.62;97161.70;617243;230;64840;-68
2023/12/08 06:56:04;;;;;;;;;;;;;;;19.06;46.63;97165.16;617317;230;64197;-68
2023/12/08 06:58:31;;;;;;;;;;;;;;;19.06;46.65;97170.48;617264;230;66756;-68
2023/12/08 07:00:59;;;;;;;;;;;;;;;19.06;46.72;97167.02;617192;230;62466;-68
2023/12/08 07:03:27;;;;;;;;;;;;;;;19.07;46.72;97173.97;617212;230;64287;-68
2023/12/08 07:05:54;;;;;;;;;;;;;;;19.06;46.77;97181.13;617243;230;67446;-68
2023/12/08 07:08:22;;;;;;;;;;;;;;;19.05;46.77;97170.75;616960;230;62408;-72
2023/12/08 07:10:49;;;;;;;;;;;;;;;19.06;46.85;97177.67;616755;230;66554;-69
2023/12/08 07:13:17;;;;;;;;;;;;;;;19.05;46.60;97174.21;617113;230;65000;-69
2023/12/08 07:15:45;;;;;;;;;;;;;;;19.04;46.49;97175.28;617110;230;64966;-67
2023/12/08 07:18:12;;;;;;;;;;;;;;;19.03;46.07;97175.52;617205;230;65648;-68
2023/12/08 07:20:40;;;;;;;;;;;;;;;19.04;46.25;97171.79;617064;230;64824;-69
2023/12/08 07:23:08;;;;;;;;;;;;;;;19.03;45.56;97181.64;621782;227;64970;-69
2023/12/08 07:25:36;;;;;;;;;;;;;;;19.04;45.48;97177.95;622925;227;67158;-69
2023/12/08 07:28:03;;;;;;;;;;;;;;;19.05;45.15;97184.07;623024;227;64706;-69
2023/12/08 07:30:31;;;;;;;;;;;;;;;19.07;44.88;97187.29;623000;227;62442;-69
2023/12/08 07:32:58;;;;;;;;;;;;;;;19.06;44.81;97189.13;623025;227;66958;-69
2023/12/08 07:35:26;;;;;;;;;;;;;;;19.06;44.80;97191.79;623004;227;64570;-71
2023/12/08 07:37:54;;;;;;;;;;;;;;;19.07;44.83;97193.41;620602;227;64895;-71
2023/12/08 07:40:21;;;;;;;;;;;;;;;19.07;44.87;97188.09;620560;228;64896;-70
2023/12/08 07:42:49;;;;;;;;;;;;;;;19.07;44.84;97181.97;620586;228;67994;-72
2023/12/08 07:45:17;;;;;;;;;;;;;;;19.07;44.84;97185.42;620600;228;64728;-68
2023/12/08 07:47:45;;;;;;;;;;;;;;;19.08;44.87;97187.02;620636;228;67899;-69
2023/12/08 07:50:13;;;;;;;;;;;;;;;19.11;44.96;97183.05;620573;228;64743;-71
2023/12/08 07:52:46;;;;;;;;;;;;;;;19.10;44.77;97189.44;620557;228;62414;-69
2023/12/08 07:55:10;;;;;;;;;;;;;;;19.12;44.72;97189.17;620334;228;64431;-70
2023/12/08 07:57:38;;;;;;;;;;;;;;;19.08;44.79;97183.56;620052;227;64356;-69
2023/12/08 08:00:10;;;;;;;;;;;;;;;19.08;44.63;97195.02;620529;224;64740;-69
2023/12/08 08:02:38;;;;;;;;;;;;;;;19.06;44.35;97183.00;619625;224;64435;-69
2023/12/08 08:05:15;;;;;;;;;;;;;;;19.06;44.16;97194.45;617751;224;66886;-71
2023/12/08 08:07:43;;;;;;;;;;;;;;;19.08;44.10;97188.89;617559;227;64939;-70
2023/12/08 08:10:11;;;;;;;;;;;;;;;19.08;43.97;97195.02;620093;227;64355;-71
2023/12/08 08:12:39;;;;;;;;;;;;;;;19.09;43.93;97195.81;620379;224;66797;-71
2023/12/08 08:15:07;;;;;;;;;;;;;;;19.09;43.87;97195.81;620044;227;62334;-74
2023/12/08 08:17:34;;;;;;;;;;;;;;;19.08;43.78;97183.56;622232;224;66908;-72
2023/12/08 08:20:03;;;;;;;;;;;;;;;19.10;43.74;97181.45;620787;224;65203;-72
2023/12/08 08:22:31;;;;;;;;;;;;;;;19.08;43.70;97192.34;623841;227;64510;-74
2023/12/08 08:24:59;;;;;;;;;;;;;;;19.11;43.71;97192.91;622543;227;66691;-69
2023/12/08 08:27:27;;;;;;;;;;;;;;;19.12;43.82;97197.96;620296;224;67116;-70
2023/12/08 08:29:54;;;;;;;;;;;;;;;19.11;43.82;97204.36;621447;224;64692;-70
2023/12/08 08:32:22;;;;;;;;;;;;;;;19.11;43.77;97201.70;622065;227;66770;-69
2023/12/08 08:34:49;;;;;;;;;;;;;;;19.10;43.82;97193.94;618920;224;67818;-71
2023/12/08 08:37:17;;;;;;;;;;;;;;;19.13;43.84;97198.79;621731;224;64543;-68
2023/12/08 08:39:44;;;;;;;;;;;;;;;19.12;43.86;97195.30;621974;224;66769;-71
2023/12/08 08:42:12;;;;;;;;;;;;;;;19.10;43.85;97189.44;624661;227;64698;-69
2023/12/08 08:44:39;;;;;;;;;;;;;;;19.11;43.82;97183.05;624677;227;62556;-70
2023/12/08 08:47:07;;;;;;;;;;;;;;;19.12;43.83;97179.31;624649;227;64177;-70
2023/12/08 08:49:35;;;;;;;;;;;;;;;19.11;43.84;97177.72;624631;227;66784;-69
2023/12/08 08:52:02;;;;;;;;;;;;;;;19.12;43.92;97179.31;624676;227;65699;-73
2023/12/08 08:54:30;;;;;;;;;;;;;;;19.12;43.92;97173.19;624697;227;64887;-69
2023/12/08 08:56:58;;;;;;;;;;;;;;;19.12;43.94;97176.66;622591;224;66645;-68
2023/12/08 08:59:25;;;;;;;;;;;;;;;19.11;43.99;97180.38;625489;227;64539;-69
2023/12/08 09:01:53;;;;;;;;;;;;;;;19.12;44.01;97179.31;625543;227;66821;-70
2023/12/08 09:04:20;;;;;;;;;;;;;;;19.13;44.07;97177.48;620805;224;64701;-70
2023/12/08 09:06:48;;;;;;;;;;;;;;;19.13;44.04;97177.48;620477;227;64724;-69
2023/12/08 09:09:16;;;;;;;;;;;;;;;19.12;44.12;97171.32;621806;227;64406;-71
2023/12/08 09:11:43;;;;;;;;;;;;;;;19.13;44.19;97169.48;618955;224;66743;-72
2023/12/08 09:14:11;;;;;;;;;;;;;;;19.11;44.75;97161.73;622804;224;65612;-74
2023/12/08 09:16:39;;;;;;;;;;;;;;;19.12;44.17;97160.66;624615;227;64244;-74
2023/12/08 09:19:06;;;;;;;;;;;;;;;19.11;44.03;97161.73;621597;227;66758;-73
2023/12/08 09:21:34;;;;;;;;;;;;;;;19.11;43.94;97151.08;620023;224;64833;-75
2023/12/08 09:24:02;;;;;;;;;;;;;;;19.11;43.93;97145.75;617535;229;66754;-74
2023/12/08 09:26:29;;;;;;;;;;;;;;;19.10;43.95;97138.83;617489;229;64741;-74
2023/12/08 09:28:57;;;;;;;;;;;;;;;19.11;43.99;97137.77;617649;229;64872;-74
2023/12/08 09:31:25;;;;;;;;;;;;;;;19.10;44.00;97136.17;617530;229;64207;-73
2023/12/08 09:33:52;;;;;;;;;;;;;;;19.11;44.02;97115.66;617614;229;66523;-73
2023/12/08 09:36:20;;;;;;;;;;;;;;;19.10;44.00;97120.19;617564;229;64798;-74
2023/12/08 09:38:48;;;;;;;;;;;;;;;19.11;44.07;97113.78;617383;229;66968;-74
2023/12/08 09:41:17;;;;;;;;;;;;;;;19.11;44.07;97111.13;619920;224;66931;-74
2023/12/08 09:43:55;;;;;;;;;;;;;;;19.08;44.12;97109.77;624493;227;62287;-74
2023/12/08 09:46:23;;;;;;;;;;;;;;;19.11;44.11;97107.66;624378;227;64268;-70
2023/12/08 09:48:54;;;;;;;;;;;;;;;19.10;44.11;97098.88;624477;227;66665;-67
2023/12/08 09:51:21;;;;;;;;;;;;;;;19.11;44.14;97107.66;624389;227;62764;-72
2023/12/08 09:53:49;;;;;;;;;;;;;;;19.10;44.16;97101.54;624418;227;66774;-67
2023/12/08 09:56:23;;;;;;;;;;;;;;;19.10;44.18;97095.38;624503;227;64437;-69
2023/12/08 09:58:48;;;;;;;;;;;;;;;19.11;44.35;97097.80;624299;227;65686;-73
2023/12/08 10:01:17;;;;;;;;;;;;;;;19.13;44.29;97092.23;624373;227;66685;-71
2023/12/08 10:03:44;;;;;;;;;;;;;;;19.13;44.28;97090.37;624386;227;64671;-70
2023/12/08 10:06:13;;;;;;;;;;;;;;;19.13;44.40;97087.70;624426;227;64901;-72
2023/12/08 10:08:41;;;;;;;;;;;;;;;19.13;44.46;97087.70;624418;227;63641;-71
2023/12/08 10:11:08;;;;;;;;;;;;;;;19.15;44.54;97090.09;624449;227;67711;-71
2023/12/08 10:13:36;;;;;;;;;;;;;;;19.13;44.60;97090.37;624423;227;64711;-72
2023/12/08 10:16:04;;;;;;;;;;;;;;;19.14;44.62;97078.64;624373;227;64276;-72
2023/12/08 10:18:33;;;;;;;;;;;;;;;19.14;44.62;97081.30;624466;227;66800;-72
2023/12/08 10:21:17;;;;;;;;;;;;;;;19.16;44.64;97083.73;624434;227;64585;-72
2023/12/08 10:23:45;;;;;;;;;;;;;;;19.17;44.64;97082.66;624512;227;64530;-68
2023/12/08 10:26:16;;;;;;;;;;;;;;;19.15;44.65;97074.11;624496;227;66478;-71
2023/12/08 10:28:44;;;;;;;;;;;;;;;19.16;44.68;97079.20;624417;227;64780;-72
2023/12/08 10:31:12;;;;;;;;;;;;;;;19.15;44.70;97072.27;624422;227;64451;-72
2023/12/08 10:33:41;;;;;;;;;;;;;;;19.15;44.71;97072.27;624508;227;64584;-72
2023/12/08 10:36:09;;;;;;;;;;;;;;;19.16;44.73;97067.73;624324;226;64725;-71
2023/12/08 10:38:37;;;;;;;;;;;;;;;19.15;44.75;97072.27;624470;227;64442;-72
2023/12/08 10:41:05;;;;;;;;;;;;;;;19.16;44.76;97068.54;624488;227;65317;-71
2023/12/08 10:43:32;;;;;;;;;;;;;;;19.16;44.78;97059.75;624463;227;64553;-72
2023/12/08 10:46:01;;;;;;;;;;;;;;;19.16;44.78;97068.54;624549;227;64385;-71
2023/12/08 10:48:28;;;;;;;;;;;;;;;19.17;44.83;97064.01;624578;227;66231;-71
2023/12/08 10:50:56;;;;;;;;;;;;;;;19.17;44.84;97056.81;624344;227;64657;-67
2023/12/08 10:53:24;;;;;;;;;;;;;;;19.15;44.82;97053.63;624347;227;66569;-72
2023/12/08 10:56:02;;;;;;;;;;;;;;;19.16;44.81;97047.22;621262;227;66784;-70
2023/12/08 10:58:31;;;;;;;;;;;;;;;19.16;44.78;97041.09;617576;229;64877;-69
2023/12/08 11:01:00;;;;;;;;;;;;;;;19.15;44.82;97042.14;617649;227;66696;-69
2023/12/08 11:03:32;;;;;;;;;;;;;;;19.15;44.74;97040.30;617606;229;66451;-70
2023/12/08 11:06:09;;;;;;;;;;;;;;;19.16;44.66;97041.90;617461;227;63523;-71
2023/12/08 11:08:38;;;;;;;;;;;;;;;19.15;44.56;97044.80;592897;237;67622;-71
2023/12/08 11:11:07;;;;;;;;;;;;;;;19.13;44.50;97034.42;617527;227;66781;-72
2023/12/08 11:13:42;;;;;;;;;;;;;;;19.15;44.41;97034.15;617625;227;62336;-72
2023/12/08 11:16:22;;;;;;;;;;;;;;;19.13;44.36;97031.77;617281;229;66732;-71
2023/12/08 11:18:52;;;;;;;;;;;;;;;19.13;44.34;97031.77;617607;229;66780;-71
2023/12/08 11:21:20;;;;;;;;;;;;;;;19.14;44.36;97033.36;617553;229;64912;-72
2023/12/08 11:23:47;;;;;;;;;;;;;;;19.11;44.34;97023.22;617604;229;67253;-69
2023/12/08 11:26:34;;;;;;;;;;;;;;;19.15;44.33;97023.49;617514;229;64643;-71
2023/12/08 11:29:07;;;;;;;;;;;;;;;19.12;44.32;97035.47;617537;229;64728;-71
2023/12/08 11:31:53;;;;;;;;;;;;;;;19.12;44.28;97021.35;617575;229;65404;-71
2023/12/08 11:34:24;;;;;;;;;;;;;;;19.13;44.26;97020.31;617561;229;66800;-71
2023/12/08 11:36:52;;;;;;;;;;;;;;;19.13;44.21;97018.44;619220;227;62373;-71
2023/12/08 11:39:33;;;;;;;;;;;;;;;19.13;44.25;97017.64;621453;228;66930;-72
2023/12/08 11:42:09;;;;;;;;;;;;;;;19.13;44.29;97022.97;621235;228;46278;-72
2023/12/08 11:44:40;;;;;;;;;;;;;;;19.12;44.28;97011.49;620096;228;62531;-71
2023/12/08 11:47:08;;;;;;;;;;;;;;;19.13;44.41;97015.78;621400;228;67534;-72
2023/12/08 11:49:38;;;;;;;;;;;;;;;19.13;44.47;97015.78;621528;228;67550;-72
2023/12/08 11:52:06;;;;;;;;;;;;;;;19.13;44.52;97015.78;621275;228;64911;-71
2023/12/08 11:54:51;;;;;;;;;;;;;;;19.16;44.65;97014.46;621453;228;64509;-72
2023/12/08 11:57:20;;;;;;;;;;;;;;;19.14;44.68;97013.91;621478;228;66800;-71
2023/12/08 11:59:47;;;;;;;;;;;;;;;19.15;44.74;97011.00;621562;228;62357;-71
2023/12/08 12:02:15;;;;;;;;;;;;;;;19.15;44.76;97013.66;621520;228;66708;-72
2023/12/08 12:04:43;;;;;;;;;;;;;;;19.15;44.80;97013.66;621575;228;66319;-71
2023/12/08 12:07:11;;;;;;;;;;;;;;;19.15;44.86;97013.66;621502;228;63526;-71
2023/12/08 12:09:39;;;;;;;;;;;;;;;19.14;44.85;97013.91;621409;228;66793;-71
2023/12/08 12:12:09;;;;;;;;;;;;;;;19.13;44.87;97007.78;621455;228;64600;-68
2023/12/08 12:14:38;;;;;;;;;;;;;;;19.15;44.90;97016.33;621343;228;64687;-68
2023/12/08 12:17:05;;;;;;;;;;;;;;;19.15;44.85;97013.66;621392;228;64651;-68
2023/12/08 12:19:33;;;;;;;;;;;;;;;19.16;44.81;97015.26;621540;228;64574;-69
2023/12/08 12:22:01;;;;;;;;;;;;;;;19.15;44.77;97008.34;621519;228;64730;-68
2023/12/08 12:24:29;;;;;;;;;;;;;;;19.16;44.74;97014.46;621514;228;66955;-69
2023/12/08 12:26:57;;;;;;;;;;;;;;;19.15;44.71;97013.66;621570;228;65499;-68
2023/12/08 12:29:24;;;;;;;;;;;;;;;19.16;44.70;97020.59;621493;228;62339;-68
2023/12/08 12:31:52;;;;;;;;;;;;;;;19.15;44.68;97011.00;621554;228;66750;-69
2023/12/08 12:34:19;;;;;;;;;;;;;;;19.14;44.66;97022.70;621511;228;64421;-70
2023/12/08 12:36:47;;;;;;;;;;;;;;;19.15;44.66;97013.66;621904;227;63453;-69
2023/12/08 12:39:14;;;;;;;;;;;;;;;19.17;44.64;97024.05;622566;228;65071;-69
2023/12/08 12:41:42;;;;;;;;;;;;;;;19.16;44.70;97020.59;622629;228;64586;-69
2023/12/08 12:44:09;;;;;;;;;;;;;;;19.16;44.64;97019.79;622581;228;63525;-69
2023/12/08 12:46:38;;;;;;;;;;;;;;;19.16;44.65;97019.79;622570;228;64626;-68
2023/12/08 12:49:06;;;;;;;;;;;;;;;19.17;44.64;97021.37;622467;228;66846;-66
2023/12/08 12:51:37;;;;;;;;;;;;;;;19.16;44.66;97020.59;622498;228;64840;-68
2023/12/08 12:54:05;;;;;;;;;;;;;;;19.17;44.66;97026.71;622649;228;64692;-68